K-storm — V2DV8 — position and weather

sailwx.info

Track history (hours):
 
Tides and Currents Weather Stations Pressure Air Temp Water Temp Dewpoint Dewpoint Depression Visibility Wind Speed Wind Dir Waves Ship Positions

K-storm

Last reported at 2016-Jul-01 02:25 UTC. Time now 2016-Jul-01 02:45 UTC.
Position N 26°04' W 080°07'.

Length 139 m; draft 6.3 m.

Type: Ship. MMSI: 305350000.

Date/timePositionNaut miles runAvg speedWind from/ knotsBaromVisibWave heightAir tempDewpointWater temp
2016-Jul-01 02:25N 26°04' W 080°07'0 0.0
2016-Jul-01 01:19N 26°04' W 080°07'0 0.0
2016-Jul-01 00:30N 26°04' W 080°07'0 0.0
2016-Jun-30 23:33N 26°04' W 080°07'0 0.0
2016-Jun-30 22:32N 26°04' W 080°07'0 0.0
2016-Jun-30 21:23N 26°04' W 080°07'0 0.0
2016-Jun-30 20:29N 26°04' W 080°07'0 0.0
2016-Jun-30 19:22N 26°04' W 080°07'0 0.0
2016-Jun-30 18:31N 26°04' W 080°07'0 0.0
2016-Jun-30 17:27N 26°04' W 080°07'0 0.0
2016-Jun-30 16:33N 26°04' W 080°07'0 0.0
2016-Jun-30 15:29N 26°04' W 080°07'0 0.0
2016-Jun-30 14:23N 26°04' W 080°07'0 0.0
2016-Jun-30 06:30N 26°04' W 080°07'0 0.0
2016-Jun-30 05:23N 26°04' W 080°07'0 0.0
2016-Jun-30 04:32N 26°04' W 080°07'0 0.0
2016-Jun-30 03:10N 26°04' W 080°07'0 0.1
2016-Jun-30 02:31N 26°04' W 080°07'0 0.0
2016-Jun-30 01:28N 26°04' W 080°07'0 0.0
2016-Jun-30 00:33N 26°04' W 080°07'4 3.5
2016-Jun-29 23:33N 26°06' W 080°04'8 7.8
2016-Jun-29 22:33N 26°00' W 079°58'9 9.4
2016-Jun-29 21:33N 25°53' W 079°51'  
2016-Jun-24 17:32N 25°42' W 079°42'1313.0
2016-Jun-24 16:33N 25°53' W 079°50'1514.5
2016-Jun-24 15:33N 26°03' W 080°01'5 4.9
2016-Jun-24 14:26N 26°04' W 080°07'0 0.0
2016-Jun-24 13:32N 26°04' W 080°07'0 0.0
2016-Jun-24 12:13N 26°04' W 080°07'0 0.0
2016-Jun-24 11:22N 26°04' W 080°07'0 0.0
2016-Jun-24 10:31N 26°04' W 080°07'0 0.0
2016-Jun-24 09:24N 26°04' W 080°07'0 0.0
2016-Jun-24 07:26N 26°04' W 080°07'0 0.1
2016-Jun-24 04:22N 26°04' W 080°07'0 0.0
2016-Jun-24 03:31N 26°04' W 080°07'0 0.0
2016-Jun-24 02:24N 26°04' W 080°07'0 0.0
2016-Jun-24 01:33N 26°04' W 080°07'0 0.0
2016-Jun-24 00:26N 26°04' W 080°07'0 0.0
2016-Jun-23 23:32N 26°04' W 080°07'0 0.3
2016-Jun-23 22:26N 26°04' W 080°07'0 0.0
2016-Jun-23 21:31N 26°04' W 080°07'0 0.0
2016-Jun-23 20:28N 26°04' W 080°07'0 0.0
2016-Jun-23 19:33N 26°04' W 080°07'0 0.0
2016-Jun-23 18:30N 26°04' W 080°07'0 0.0
2016-Jun-23 17:24N 26°04' W 080°07'0 0.0
2016-Jun-23 16:32N 26°04' W 080°07'0 0.0
2016-Jun-23 15:08N 26°04' W 080°07'0 0.0
2016-Jun-23 14:31N 26°04' W 080°07'0 0.0
2016-Jun-23 13:28N 26°04' W 080°07'0 0.0
2016-Jun-23 12:33N 26°04' W 080°07'0 0.0
2016-Jun-23 11:30N 26°04' W 080°07'0 0.0
2016-Jun-23 10:23N 26°04' W 080°07'0 0.0
2016-Jun-23 09:32N 26°04' W 080°07'0 0.0
2016-Jun-23 08:26N 26°04' W 080°07'0 0.0
2016-Jun-23 07:31N 26°04' W 080°07'0 0.0
2016-Jun-23 05:33N 26°04' W 080°07'0 0.0
2016-Jun-23 04:30N 26°04' W 080°07'0 0.0
2016-Jun-23 03:32N 26°04' W 080°07'0 0.0
2016-Jun-23 02:32N 26°04' W 080°07'0 0.0
2016-Jun-23 01:33N 26°04' W 080°07'4 4.2
2016-Jun-23 00:33N 26°05' W 080°03'6 6.5
2016-Jun-22 23:33N 26°01' W 079°58'1211.8
2016-Jun-22 22:34N 25°52' W 079°49'  
Track history (hours):
 
Tides and Currents Weather Stations Pressure Air Temp Water Temp Dewpoint Dewpoint Depression Visibility Wind Speed Wind Dir Waves Ship Positions

K-storm

Last reported at 2016-Jul-01 02:25 UTC. Time now 2016-Jul-01 02:45 UTC.
Position N 26°04' W 080°07'.

Length 139 m; draft 6.3 m.

Type: Ship. MMSI: 305350000.

Date/timePositionNaut miles runAvg speedWind from/ knotsBaromVisibWave heightAir tempDewpointWater temp
2016-Jul-01 02:25N 26°04' W 080°07'0 0.0
2016-Jul-01 01:19N 26°04' W 080°07'0 0.0
2016-Jul-01 00:30N 26°04' W 080°07'0 0.0
2016-Jun-30 23:33N 26°04' W 080°07'0 0.0
2016-Jun-30 22:32N 26°04' W 080°07'0 0.0
2016-Jun-30 21:23N 26°04' W 080°07'0 0.0
2016-Jun-30 20:29N 26°04' W 080°07'0 0.0
2016-Jun-30 19:22N 26°04' W 080°07'0 0.0
2016-Jun-30 18:31N 26°04' W 080°07'0 0.0
2016-Jun-30 17:27N 26°04' W 080°07'0 0.0
2016-Jun-30 16:33N 26°04' W 080°07'0 0.0
2016-Jun-30 15:29N 26°04' W 080°07'0 0.0
2016-Jun-30 14:23N 26°04' W 080°07'0 0.0
2016-Jun-30 06:30N 26°04' W 080°07'0 0.0
2016-Jun-30 05:23N 26°04' W 080°07'0 0.0
2016-Jun-30 04:32N 26°04' W 080°07'0 0.0
2016-Jun-30 03:10N 26°04' W 080°07'0 0.1
2016-Jun-30 02:31N 26°04' W 080°07'0 0.0
2016-Jun-30 01:28N 26°04' W 080°07'0 0.0
2016-Jun-30 00:33N 26°04' W 080°07'4 3.5
2016-Jun-29 23:33N 26°06' W 080°04'8 7.8
2016-Jun-29 22:33N 26°00' W 079°58'9 9.4
2016-Jun-29 21:33N 25°53' W 079°51'  
2016-Jun-24 17:32N 25°42' W 079°42'1313.0
2016-Jun-24 16:33N 25°53' W 079°50'1514.5
2016-Jun-24 15:33N 26°03' W 080°01'5 4.9
2016-Jun-24 14:26N 26°04' W 080°07'0 0.0
2016-Jun-24 13:32N 26°04' W 080°07'0 0.0
2016-Jun-24 12:13N 26°04' W 080°07'0 0.0
2016-Jun-24 11:22N 26°04' W 080°07'0 0.0
2016-Jun-24 10:31N 26°04' W 080°07'0 0.0
2016-Jun-24 09:24N 26°04' W 080°07'0 0.0
2016-Jun-24 07:26N 26°04' W 080°07'0 0.1
2016-Jun-24 04:22N 26°04' W 080°07'0 0.0
2016-Jun-24 03:31N 26°04' W 080°07'0 0.0
2016-Jun-24 02:24N 26°04' W 080°07'0 0.0
2016-Jun-24 01:33N 26°04' W 080°07'0 0.0
2016-Jun-24 00:26N 26°04' W 080°07'0 0.0
2016-Jun-23 23:32N 26°04' W 080°07'0 0.3
2016-Jun-23 22:26N 26°04' W 080°07'0 0.0
2016-Jun-23 21:31N 26°04' W 080°07'0 0.0
2016-Jun-23 20:28N 26°04' W 080°07'0 0.0
2016-Jun-23 19:33N 26°04' W 080°07'0 0.0
2016-Jun-23 18:30N 26°04' W 080°07'0 0.0
2016-Jun-23 17:24N 26°04' W 080°07'0 0.0
2016-Jun-23 16:32N 26°04' W 080°07'0 0.0
2016-Jun-23 15:08N 26°04' W 080°07'0 0.0
2016-Jun-23 14:31N 26°04' W 080°07'0 0.0
2016-Jun-23 13:28N 26°04' W 080°07'0 0.0
2016-Jun-23 12:33N 26°04' W 080°07'0 0.0
2016-Jun-23 11:30N 26°04' W 080°07'0 0.0
2016-Jun-23 10:23N 26°04' W 080°07'0 0.0
2016-Jun-23 09:32N 26°04' W 080°07'0 0.0
2016-Jun-23 08:26N 26°04' W 080°07'0 0.0
2016-Jun-23 07:31N 26°04' W 080°07'0 0.0
2016-Jun-23 05:33N 26°04' W 080°07'0 0.0
2016-Jun-23 04:30N 26°04' W 080°07'0 0.0
2016-Jun-23 03:32N 26°04' W 080°07'0 0.0
2016-Jun-23 02:32N 26°04' W 080°07'0 0.0
2016-Jun-23 01:33N 26°04' W 080°07'4 4.2
2016-Jun-23 00:33N 26°05' W 080°03'6 6.5
2016-Jun-22 23:33N 26°01' W 079°58'1211.8
2016-Jun-22 22:34N 25°52' W 079°49'  

Dump ship's entire track history